Stuart, FL

10:55 PM EDT on August 03, 2015 (GMT -0400)
Port Sewall | | Change Station
CLOSE
Current Station
Personal Weather Station
Location: Stuart, FL
Elevation: 33 ft
Nearby Weather Stations

Elev 33 ft 27.18 °N, 80.20 °W | Updated 15 minutes ago

Mostly Cloudy
Mostly Cloudy
76.7 °F
Feels Like 77 °F
N
0.0
Wind Variable Wind from SSW
Gusts 0.0 mph

Today
High -- | Low -- °F
--% Chance of Precip.
Yesterday
High -- | Low -- °F
Precip. -- in
6:45 AM 8:08 PM
Waning Gibbous, 82% visible
Pressure 30.03 in
Visibility 10.0 miles
Clouds Clear
Heat Index 77 °F
Dew Point 75 °F
Humidity 94%
Rainfall 0.00 in
Snow Depth Not available.
UV 0 out of 12
Pollen 4.10 out of 12
Air Quality Not available.
Flu Activity Not available.
METAR KFPR 040253Z AUTO 00000KT 10SM CLR 24/22 A3003 RMK AO2 SLP167 T02390217 51020 TSNO

More Conditions Fewer Conditions

Pressure 30.03 in
Visibility 10.0 miles
Clouds Clear
Heat Index 77 °F
Dew Point 75 °F
Humidity 94%
Rainfall 0.00 in
Snow Depth Not available.
UV 0 out of 12
Pollen 4.10 out of 12
Air Quality Not available.
Flu Activity Not available.
METAR KFPR 040253Z AUTO 00000KT 10SM CLR 24/22 A3003 RMK AO2 SLP167 T02390217 51020 TSNO

More Conditions Fewer Conditions

Nowcast | as of 9:55 PM EDT on August 3, 2015

A large thunderstorm complex over North Florida will drift east to northeast through early morning. The heaviest rainfall is expected to remain over North Florida...but a few storms will produce periods of moderate to heavy rain over North Lake and north Volusia counties...mainly north of State Road 40. Additional details...including graphics are available online at: http://www.Srh.NOAA.Gov/mlb/blog.Php

×

10-Day Weather Forecast

×

Almanac

Astronomy

Aug. 03, 2015 Rise Set
Actual Time
Civil Twilight
Nautical Twilight
Astronomical Twilight
Moon
Length of Visible Light
Length of Day
Tomorrow will be .
, % of the Moon is Illuminated

Today's Extremes

State Highs State Lows

Community

WunderPhotos

Upload Photos

1,843,834 photos uploaded!

WunderBlogs® & News

Nearby

Air Quality

  Air Quality AQ Index Pollutant
Not available.

Snow Depth

Station Depth Elevation

Earthquake Activity

City Distance Mag. Time & Date
Minimum magnitude displayed is 2.5.

Coastal Water Temperatures

Place Temperature

Stations

Nearby Weather Stations

Station Location Temp. Windchill Dew Point Humidity Wind Precip. Elev Updated Type